Terminal Aerodrome Forecast
Issued by NWS

Home | Current Version | Previous Version | Graphics & Text | Print | Product List | Glossary On
Versions: 1 2 3 4 5 6 7 8 9 10 11 12 13 14 15
722
FTUS43 KICT 032323
TAFHUT
TAF
KHUT 032323Z 0400/0424 11004KT 5SM -RA OVC015
     FM040200 VRB03KT 3SM -RA OVC007
     FM041400 31005KT P6SM SCT110=

USA.gov is the U.S. government's official web portal to all federal, state and local government web resources and services.